createdAt,value
2019-05-30T00:00:35.384Z,2.00
2019-05-30T00:01:38.091Z,1.80
2019-05-30T00:02:41.180Z,1.00
2019-05-30T00:03:43.875Z,2.00
2019-05-30T00:04:46.989Z,2.40
2019-05-30T00:05:49.715Z,2.60
2019-05-30T00:06:56.925Z,2.00
2019-05-30T00:07:58.537Z,2.00
2019-05-30T00:09:06.647Z,0.80
2019-05-30T00:10:09.086Z,2.00
2019-05-30T00:11:12.213Z,2.00
2019-05-30T00:12:14.848Z,1.60
2019-05-30T00:13:17.263Z,2.00
2019-05-30T00:14:19.816Z,1.40
2019-05-30T00:15:22.336Z,2.00
2019-05-30T00:16:24.883Z,2.00
2019-05-30T00:17:27.343Z,1.80
2019-05-30T00:18:30.057Z,1.20
2019-05-30T00:19:33.952Z,1.80
2019-05-30T00:20:36.629Z,2.00
2019-05-30T00:21:39.013Z,1.80
2019-05-30T00:22:41.445Z,1.20
2019-05-30T00:23:43.858Z,1.60
2019-05-30T00:24:45.724Z,2.20
2019-05-30T00:25:48.270Z,2.00
2019-05-30T00:26:52.795Z,1.80
2019-05-30T00:27:55.278Z,2.00
2019-05-30T00:28:58.325Z,1.20
2019-05-30T00:30:01.470Z,1.60
2019-05-30T00:31:04.695Z,1.00
2019-05-30T00:32:07.845Z,1.40
2019-05-30T00:33:10.383Z,1.80
2019-05-30T00:34:12.761Z,1.20
2019-05-30T00:35:16.680Z,1.60
2019-05-30T00:36:20.851Z,1.80
2019-05-30T00:37:24.715Z,2.00
2019-05-30T00:38:27.534Z,2.00
2019-05-30T00:39:30.629Z,2.00
2019-05-30T00:40:33.380Z,1.00
2019-05-30T00:41:35.856Z,2.00
2019-05-30T00:42:37.690Z,1.00
2019-05-30T00:43:40.826Z,1.60
2019-05-30T00:44:43.229Z,2.00
2019-05-30T00:45:45.031Z,2.00
2019-05-30T00:46:47.577Z,2.00
2019-05-30T00:47:51.986Z,2.00
2019-05-30T00:48:53.785Z,0.80
2019-05-30T00:49:58.104Z,1.60
2019-05-30T00:51:00.493Z,1.00
2019-05-30T00:52:05.079Z,2.80
2019-05-30T00:53:07.746Z,1.00
2019-05-30T00:54:10.157Z,2.00
2019-05-30T00:55:12.952Z,1.00
2019-05-30T00:56:15.408Z,2.00
2019-05-30T00:57:17.858Z,2.00
2019-05-30T00:58:19.820Z,1.20
2019-05-30T00:59:22.276Z,1.00
2019-05-30T01:00:41.940Z,1.80
2019-05-30T01:01:29.874Z,1.20
2019-05-30T01:02:32.193Z,1.00
2019-05-30T01:03:34.951Z,2.00
2019-05-30T01:04:37.395Z,1.20
2019-05-30T01:05:40.420Z,2.00
2019-05-30T01:06:42.862Z,1.00
2019-05-30T01:07:45.371Z,1.20
2019-05-30T01:08:47.676Z,1.40
2019-05-30T01:09:49.727Z,3.00
2019-05-30T01:10:51.997Z,1.00
2019-05-30T01:11:55.187Z,1.00
2019-05-30T01:12:59.920Z,2.00
2019-05-30T01:14:05.326Z,2.00
2019-05-30T01:15:09.603Z,1.20
2019-05-30T01:16:11.460Z,1.20
2019-05-30T01:17:14.396Z,1.40
2019-05-30T01:18:16.671Z,1.00
2019-05-30T01:19:19.533Z,1.00
2019-05-30T01:20:22.251Z,1.20
2019-05-30T01:21:24.077Z,1.20
2019-05-30T01:22:26.480Z,1.00
2019-05-30T01:23:29.005Z,1.40
2019-05-30T01:24:31.947Z,1.80
2019-05-30T01:25:34.608Z,2.00
2019-05-30T01:26:37.348Z,2.00
2019-05-30T01:27:39.633Z,1.00
2019-05-30T01:28:41.919Z,1.00
2019-05-30T01:29:44.501Z,2.00
2019-05-30T01:30:59.639Z,1.80
2019-05-30T01:31:51.321Z,1.00
2019-05-30T01:32:53.759Z,1.40
2019-05-30T01:33:55.434Z,1.60
2019-05-30T01:34:59.777Z,1.00
2019-05-30T01:36:05.818Z,1.40
2019-05-30T01:37:07.897Z,2.00
2019-05-30T01:38:10.445Z,2.00
2019-05-30T01:39:12.230Z,1.20
2019-05-30T01:40:14.231Z,1.00
2019-05-30T01:41:17.691Z,1.60
2019-05-30T01:42:20.013Z,2.00
2019-05-30T01:43:23.536Z,1.20
2019-05-30T01:44:25.877Z,1.40
2019-05-30T01:45:28.380Z,2.00
2019-05-30T01:46:31.022Z,1.20
2019-05-30T01:47:33.385Z,1.00
2019-05-30T01:48:35.928Z,1.00
2019-05-30T01:49:39.685Z,1.40
2019-05-30T01:50:43.635Z,2.00
2019-05-30T01:51:45.981Z,3.00
2019-05-30T01:52:48.835Z,2.00
2019-05-30T01:53:52.556Z,1.00
2019-05-30T01:54:54.349Z,1.00
2019-05-30T01:55:58.585Z,1.00
2019-05-30T01:57:01.134Z,1.00
2019-05-30T01:58:05.085Z,1.00
2019-05-30T01:59:08.789Z,2.00
2019-05-30T02:00:21.129Z,1.00
2019-05-30T02:01:25.183Z,1.60
2019-05-30T02:02:24.071Z,1.00
2019-05-30T02:03:26.606Z,1.40
2019-05-30T02:04:29.296Z,2.00
2019-05-30T02:05:32.103Z,1.00
2019-05-30T02:06:37.916Z,2.00
2019-05-30T02:07:40.974Z,1.20
2019-05-30T02:08:44.784Z,1.40
2019-05-30T02:09:48.087Z,1.60
2019-05-30T02:10:50.780Z,1.00
2019-05-30T02:11:54.384Z,1.60
2019-05-30T02:12:56.557Z,2.20
2019-05-30T02:13:59.542Z,1.80
2019-05-30T02:15:07.776Z,2.00
2019-05-30T02:16:10.169Z,1.00
2019-05-30T02:17:13.057Z,1.00
2019-05-30T02:18:15.341Z,0.60
2019-05-30T02:19:17.941Z,1.00
2019-05-30T02:20:20.961Z,1.00
2019-05-30T02:21:22.695Z,2.00
2019-05-30T02:22:25.301Z,1.40
2019-05-30T02:23:27.858Z,2.00
2019-05-30T02:24:30.315Z,2.00
2019-05-30T02:25:32.702Z,1.00
2019-05-30T02:26:35.731Z,2.00
2019-05-30T02:27:38.209Z,2.00
2019-05-30T02:28:41.499Z,1.80
2019-05-30T02:29:44.214Z,1.80
2019-05-30T02:30:46.723Z,2.80
2019-05-30T02:31:49.960Z,1.20
2019-05-30T02:32:52.290Z,1.60
2019-05-30T02:33:55.966Z,1.20
2019-05-30T02:35:00.805Z,1.80
2019-05-30T02:36:05.766Z,2.00
2019-05-30T02:37:08.540Z,1.00
2019-05-30T02:38:12.044Z,2.00
2019-05-30T02:39:14.809Z,2.00
2019-05-30T02:40:17.462Z,1.00
2019-05-30T02:41:19.682Z,1.00
2019-05-30T02:42:22.050Z,2.00
2019-05-30T02:43:23.820Z,0.20
2019-05-30T02:44:26.134Z,1.00
2019-05-30T02:45:28.713Z,1.00
2019-05-30T02:46:31.281Z,1.00
2019-05-30T02:47:33.800Z,1.80
2019-05-30T02:48:56.859Z,2.00
2019-05-30T02:49:41.008Z,2.00
2019-05-30T02:50:43.343Z,1.00
2019-05-30T02:51:46.149Z,2.00
2019-05-30T02:52:49.001Z,1.00
2019-05-30T02:53:51.861Z,1.60
2019-05-30T02:54:54.941Z,1.40
2019-05-30T02:55:57.391Z,1.20
2019-05-30T02:57:01.309Z,2.40
2019-05-30T02:58:05.592Z,1.20
2019-05-30T02:59:09.198Z,2.00
2019-05-30T03:00:16.732Z,1.60
2019-05-30T03:01:16.991Z,1.00
2019-05-30T03:02:19.802Z,1.20
2019-05-30T03:03:22.181Z,1.20
2019-05-30T03:04:24.700Z,1.60
2019-05-30T03:05:27.013Z,2.00
2019-05-30T03:06:30.925Z,1.80
2019-05-30T03:07:34.132Z,2.20
2019-05-30T03:08:36.540Z,2.00
2019-05-30T03:09:39.346Z,1.00
2019-05-30T03:10:42.799Z,2.00
2019-05-30T03:11:45.569Z,1.20
2019-05-30T03:12:48.973Z,2.20
2019-05-30T03:13:52.995Z,1.20
2019-05-30T03:14:55.707Z,1.00
2019-05-30T03:15:58.114Z,1.20
2019-05-30T03:17:02.562Z,1.00
2019-05-30T03:18:09.427Z,1.00
2019-05-30T03:19:12.766Z,2.00
2019-05-30T03:20:22.893Z,1.00
2019-05-30T03:21:21.900Z,2.00
2019-05-30T03:22:23.731Z,1.00
2019-05-30T03:23:26.635Z,2.00
2019-05-30T03:24:29.193Z,2.00
2019-05-30T03:25:31.179Z,1.20
2019-05-30T03:26:33.865Z,1.00
2019-05-30T03:27:35.794Z,1.00
2019-05-30T03:28:38.058Z,1.00
2019-05-30T03:29:40.615Z,2.00
2019-05-30T03:30:44.496Z,2.60
2019-05-30T03:31:48.262Z,2.00
2019-05-30T03:33:19.117Z,1.00
2019-05-30T03:33:55.346Z,2.00
2019-05-30T03:34:58.316Z,1.00
2019-05-30T03:36:04.866Z,2.00
2019-05-30T03:37:10.629Z,2.00
2019-05-30T03:38:12.804Z,2.00
2019-05-30T03:39:15.536Z,1.00
2019-05-30T03:40:18.627Z,1.00
2019-05-30T03:41:22.184Z,2.80
2019-05-30T03:42:24.740Z,1.00
2019-05-30T03:43:27.065Z,1.00
2019-05-30T03:44:29.571Z,1.20
2019-05-30T03:45:33.811Z,1.00
2019-05-30T03:46:41.901Z,1.00
2019-05-30T03:47:52.813Z,1.00
2019-05-30T03:48:59.282Z,2.80
2019-05-30T03:50:05.171Z,1.00
2019-05-30T03:51:12.525Z,1.40
2019-05-30T03:52:17.535Z,2.00
2019-05-30T03:53:20.907Z,1.80
2019-05-30T03:54:24.937Z,3.00
2019-05-30T03:55:30.537Z,1.00
2019-05-30T03:56:43.122Z,2.00
2019-05-30T03:58:21.577Z,1.00
2019-05-30T03:59:31.148Z,2.00
2019-05-30T04:00:44.681Z,2.00
2019-05-30T04:02:19.019Z,1.60
2019-05-30T04:03:47.943Z,1.00
2019-05-30T04:05:09.374Z,2.40
2019-05-30T04:06:36.426Z,2.00
2019-05-30T04:07:44.891Z,0.60
2019-05-30T04:08:51.678Z,1.00
2019-05-30T04:09:58.865Z,1.80
2019-05-30T04:11:07.667Z,2.40
2019-05-30T04:12:51.120Z,2.60
2019-05-30T04:14:02.139Z,1.80
2019-05-30T04:15:32.922Z,1.00
2019-05-30T04:16:34.944Z,1.00
2019-05-30T04:17:37.336Z,1.40
2019-05-30T04:18:39.194Z,1.20
2019-05-30T04:19:43.070Z,1.00
2019-05-30T04:20:45.450Z,1.00
2019-05-30T04:21:49.354Z,2.00
2019-05-30T04:22:52.273Z,2.00
2019-05-30T04:23:54.618Z,2.00
2019-05-30T04:24:56.339Z,1.80
2019-05-30T04:26:00.867Z,1.00
2019-05-30T04:27:07.761Z,2.00
2019-05-30T04:28:11.943Z,2.00
2019-05-30T04:29:16.635Z,1.60
2019-05-30T04:30:19.820Z,1.20
2019-05-30T04:31:22.224Z,2.00
2019-05-30T04:32:24.569Z,1.40
2019-05-30T04:33:33.107Z,1.40
2019-05-30T04:34:32.491Z,2.00
2019-05-30T04:35:35.190Z,2.00
2019-05-30T04:36:37.591Z,1.00
2019-05-30T04:37:40.030Z,1.00
2019-05-30T04:38:43.042Z,1.00
2019-05-30T04:39:45.814Z,1.00
2019-05-30T04:40:49.227Z,2.00
2019-05-30T04:41:51.597Z,1.60
2019-05-30T04:42:54.345Z,1.80
2019-05-30T04:43:59.350Z,2.00
2019-05-30T04:45:07.437Z,2.00
2019-05-30T04:46:10.788Z,1.60
2019-05-30T04:47:14.370Z,1.20
2019-05-30T04:48:21.139Z,1.00
2019-05-30T04:49:23.463Z,1.00
2019-05-30T04:50:25.843Z,2.60
2019-05-30T04:51:28.735Z,2.00
2019-05-30T04:52:31.487Z,3.00
2019-05-30T04:53:34.231Z,1.00
2019-05-30T04:54:38.708Z,1.60
2019-05-30T04:55:41.169Z,1.80
2019-05-30T04:56:44.021Z,6.00
2019-05-30T04:57:45.799Z,2.00
2019-05-30T04:58:48.114Z,1.60
2019-05-30T04:59:50.568Z,1.20
2019-05-30T05:00:52.348Z,1.00
2019-05-30T05:01:55.076Z,2.80
2019-05-30T05:02:57.488Z,1.80
2019-05-30T05:04:00.400Z,2.00
2019-05-30T05:05:06.511Z,2.00
2019-05-30T05:06:08.867Z,2.40
2019-05-30T05:07:13.584Z,3.00
2019-05-30T05:08:17.759Z,1.80
2019-05-30T05:09:22.156Z,1.00
2019-05-30T05:10:24.720Z,1.80
2019-05-30T05:11:27.265Z,2.00
2019-05-30T05:12:29.362Z,2.20
2019-05-30T05:13:31.677Z,2.40
2019-05-30T05:14:34.390Z,2.00
2019-05-30T05:15:37.188Z,2.00
2019-05-30T05:16:39.875Z,2.00
2019-05-30T05:17:43.288Z,3.00
2019-05-30T05:18:45.184Z,2.00
2019-05-30T05:19:48.435Z,2.00
2019-05-30T05:20:50.752Z,1.60
2019-05-30T05:21:53.352Z,1.00
2019-05-30T05:22:57.007Z,1.40
2019-05-30T05:23:59.374Z,3.00
2019-05-30T05:25:01.530Z,1.60
2019-05-30T05:26:03.814Z,2.00
2019-05-30T05:27:10.502Z,1.00
2019-05-30T05:28:13.638Z,2.00
2019-05-30T05:29:17.929Z,2.00
2019-05-30T05:30:22.427Z,2.00
2019-05-30T05:31:25.452Z,1.00
2019-05-30T05:32:27.931Z,1.60
2019-05-30T05:33:29.922Z,1.00
2019-05-30T05:34:32.315Z,2.00
2019-05-30T05:35:34.623Z,2.40
2019-05-30T05:36:39.363Z,1.40
2019-05-30T05:37:41.034Z,1.00
2019-05-30T05:38:43.748Z,2.00
2019-05-30T05:39:46.204Z,2.20
2019-05-30T05:40:49.046Z,2.00
2019-05-30T05:41:52.293Z,2.00
2019-05-30T05:42:54.070Z,2.00
2019-05-30T05:43:59.208Z,2.00
2019-05-30T05:45:04.955Z,2.40
2019-05-30T05:46:07.246Z,2.60
2019-05-30T05:47:09.653Z,3.00
2019-05-30T05:48:14.326Z,3.00
2019-05-30T05:49:18.400Z,1.40
2019-05-30T05:50:20.882Z,2.00
2019-05-30T05:51:25.161Z,1.40
2019-05-30T05:52:28.884Z,2.00
2019-05-30T05:53:32.360Z,2.20
2019-05-30T05:54:35.162Z,1.80
2019-05-30T05:55:37.443Z,2.00
2019-05-30T05:56:39.929Z,2.80
2019-05-30T05:57:43.025Z,2.20
2019-05-30T05:58:45.615Z,2.80
2019-05-30T05:59:49.019Z,1.00
2019-05-30T06:00:51.466Z,1.60
2019-05-30T06:01:53.815Z,2.00
2019-05-30T06:02:56.126Z,2.00
2019-05-30T06:04:12.124Z,2.00
2019-05-30T06:05:05.269Z,2.00
2019-05-30T06:06:08.199Z,3.00
2019-05-30T06:07:10.701Z,1.80
2019-05-30T06:08:13.093Z,1.00
2019-05-30T06:09:16.433Z,1.80
2019-05-30T06:10:21.880Z,2.00
2019-05-30T06:11:24.647Z,1.60
2019-05-30T06:12:27.934Z,1.60
2019-05-30T06:13:30.872Z,1.00
2019-05-30T06:14:34.199Z,2.60
2019-05-30T06:15:36.556Z,1.40
2019-05-30T06:16:38.604Z,1.40
2019-05-30T06:17:40.928Z,1.80
2019-05-30T06:18:43.481Z,2.40
2019-05-30T06:19:46.984Z,2.00
2019-05-30T06:20:51.034Z,1.20
2019-05-30T06:21:54.534Z,1.00
2019-05-30T06:22:57.332Z,1.00
2019-05-30T06:23:59.740Z,1.60
2019-05-30T06:25:06.183Z,1.00
2019-05-30T06:26:08.417Z,1.00
2019-05-30T06:27:11.580Z,1.20
2019-05-30T06:28:14.046Z,1.00
2019-05-30T06:29:20.018Z,2.00
2019-05-30T06:30:24.372Z,1.60
2019-05-30T06:31:28.624Z,2.00
2019-05-30T06:32:31.925Z,1.00
2019-05-30T06:33:34.334Z,1.40
2019-05-30T06:34:39.657Z,1.60
2019-05-30T06:35:41.439Z,1.80
2019-05-30T06:36:44.065Z,2.00
2019-05-30T06:37:47.041Z,2.20
2019-05-30T06:38:50.078Z,2.00
2019-05-30T06:39:53.315Z,1.00
2019-05-30T06:40:55.776Z,1.00
2019-05-30T06:41:58.748Z,1.00
2019-05-30T06:43:01.095Z,2.00
2019-05-30T06:44:05.733Z,3.20
2019-05-30T06:45:08.715Z,2.00
2019-05-30T06:46:10.760Z,0.60
2019-05-30T06:47:13.496Z,1.00
2019-05-30T06:48:16.614Z,0.80
2019-05-30T06:49:20.602Z,1.00
2019-05-30T06:50:23.169Z,1.60
2019-05-30T06:51:29.088Z,1.00
2019-05-30T06:52:32.122Z,1.40
2019-05-30T06:53:35.199Z,2.20
2019-05-30T06:54:37.031Z,1.80
2019-05-30T06:55:41.382Z,1.00
2019-05-30T06:56:44.795Z,2.00
2019-05-30T06:57:47.716Z,1.20
2019-05-30T06:58:50.300Z,1.00
2019-05-30T06:59:52.821Z,1.80
2019-05-30T07:00:55.437Z,1.00
2019-05-30T07:02:00.543Z,2.00
2019-05-30T07:03:03.661Z,1.00
2019-05-30T07:04:07.529Z,2.00
2019-05-30T07:05:11.407Z,1.40
2019-05-30T07:06:14.876Z,1.80
2019-05-30T07:07:19.475Z,2.00
2019-05-30T07:08:22.690Z,1.80
2019-05-30T07:09:24.948Z,2.00
2019-05-30T07:10:28.775Z,2.00
2019-05-30T07:11:31.647Z,1.00
2019-05-30T07:12:34.029Z,1.00
2019-05-30T07:13:36.327Z,1.20
2019-05-30T07:14:40.160Z,1.20
2019-05-30T07:15:42.627Z,0.80
2019-05-30T07:16:44.885Z,1.00
2019-05-30T07:17:47.611Z,1.00
2019-05-30T07:18:50.550Z,1.20
2019-05-30T07:19:53.321Z,1.00
2019-05-30T07:20:56.144Z,1.00
2019-05-30T07:21:58.910Z,2.00
2019-05-30T07:23:01.846Z,0.00
2019-05-30T07:24:04.525Z,1.40
2019-05-30T07:25:09.248Z,0.20
2019-05-30T07:26:12.116Z,1.00
2019-05-30T07:27:14.981Z,0.60
2019-05-30T07:28:17.631Z,1.00
2019-05-30T07:29:20.544Z,0.80
2019-05-30T07:30:26.110Z,1.00
2019-05-30T07:31:32.223Z,1.00
2019-05-30T07:32:34.773Z,1.60
2019-05-30T07:33:36.628Z,0.40
2019-05-30T07:34:39.275Z,1.00
2019-05-30T07:35:42.026Z,1.00
2019-05-30T07:36:45.200Z,1.00
2019-05-30T07:37:47.629Z,1.00
2019-05-30T07:38:50.225Z,1.00
2019-05-30T07:39:53.273Z,1.00
2019-05-30T07:40:55.952Z,1.00
2019-05-30T07:42:06.201Z,1.00
2019-05-30T07:43:02.973Z,1.00
2019-05-30T07:44:05.681Z,0.60
2019-05-30T07:45:10.364Z,0.00
2019-05-30T07:46:14.729Z,1.20
2019-05-30T07:47:17.435Z,1.00
2019-05-30T07:48:19.580Z,1.00
2019-05-30T07:49:21.775Z,2.00
2019-05-30T07:50:26.192Z,1.20
2019-05-30T07:51:30.615Z,1.00
2019-05-30T07:52:34.786Z,1.00
2019-05-30T07:53:39.068Z,1.00
2019-05-30T07:54:41.703Z,1.00
2019-05-30T07:55:44.332Z,1.00
2019-05-30T07:56:47.332Z,1.00
2019-05-30T07:57:50.083Z,2.40
2019-05-30T07:58:53.237Z,1.20
2019-05-30T07:59:56.081Z,4.00
2019-05-30T08:00:59.308Z,2.00
2019-05-30T08:02:04.709Z,1.00
2019-05-30T08:03:08.851Z,1.80
2019-05-30T08:04:13.258Z,1.20
2019-05-30T08:05:24.096Z,2.00
2019-05-30T08:06:21.461Z,1.60
2019-05-30T08:07:23.798Z,1.60
2019-05-30T08:08:26.218Z,1.40
2019-05-30T08:09:30.792Z,1.00
2019-05-30T08:10:34.027Z,1.20
2019-05-30T08:11:36.841Z,1.00
2019-05-30T08:12:39.438Z,1.40
2019-05-30T08:13:42.485Z,1.00
2019-05-30T08:14:46.033Z,1.00
2019-05-30T08:15:48.917Z,1.00
2019-05-30T08:16:51.610Z,0.00
2019-05-30T08:17:54.901Z,1.00
2019-05-30T08:18:57.380Z,1.00
2019-05-30T08:19:59.975Z,1.00
2019-05-30T08:21:02.981Z,1.80
2019-05-30T08:22:05.406Z,1.00
2019-05-30T08:23:09.884Z,0.80
2019-05-30T08:24:12.875Z,0.00
2019-05-30T08:25:16.424Z,0.40
2019-05-30T08:26:21.571Z,1.20
2019-05-30T08:27:23.883Z,0.60
2019-05-30T08:28:28.678Z,1.00
2019-05-30T08:29:32.187Z,0.20
2019-05-30T08:30:34.633Z,0.00
2019-05-30T08:31:41.923Z,0.00
2019-05-30T08:32:45.767Z,0.20
2019-05-30T08:33:48.243Z,1.00
2019-05-30T08:34:50.899Z,0.00
2019-05-30T08:35:53.574Z,1.00
2019-05-30T08:36:56.467Z,1.00
2019-05-30T08:37:59.404Z,1.00
2019-05-30T08:39:04.398Z,1.00
2019-05-30T08:40:08.442Z,1.60
2019-05-30T08:41:11.328Z,1.00
2019-05-30T08:42:15.133Z,1.80
2019-05-30T08:43:17.721Z,1.00
2019-05-30T08:44:20.849Z,2.00
2019-05-30T08:45:23.147Z,1.00
2019-05-30T08:46:26.790Z,1.00
2019-05-30T08:47:31.846Z,1.00
2019-05-30T08:48:36.118Z,1.00
2019-05-30T08:49:40.387Z,1.00
2019-05-30T08:50:44.974Z,1.00
2019-05-30T08:51:49.287Z,2.00
2019-05-30T08:52:51.435Z,1.00
2019-05-30T08:53:53.692Z,1.00
2019-05-30T08:54:56.087Z,1.80
2019-05-30T08:55:58.356Z,0.80
2019-05-30T08:57:01.115Z,1.00
2019-05-30T08:58:03.430Z,1.00
2019-05-30T08:59:05.903Z,1.00
2019-05-30T09:00:13.355Z,0.20
2019-05-30T09:01:17.799Z,1.00
2019-05-30T09:02:20.572Z,1.00
2019-05-30T09:03:22.944Z,0.80
2019-05-30T09:04:25.419Z,2.00
2019-05-30T09:05:28.328Z,1.00
2019-05-30T09:06:31.146Z,1.20
2019-05-30T09:07:33.710Z,1.80
2019-05-30T09:08:36.052Z,2.00
2019-05-30T09:09:38.455Z,0.20
2019-05-30T09:10:40.970Z,0.20
2019-05-30T09:11:44.488Z,1.00
2019-05-30T09:12:49.589Z,1.00
2019-05-30T09:13:52.061Z,0.20
2019-05-30T09:14:55.087Z,1.00
2019-05-30T09:15:57.501Z,0.60
2019-05-30T09:17:00.603Z,1.20
2019-05-30T09:18:03.621Z,0.60
2019-05-30T09:19:05.435Z,1.00
2019-05-30T09:20:11.731Z,1.00
2019-05-30T09:21:16.131Z,1.00
2019-05-30T09:22:18.943Z,1.00
2019-05-30T09:23:21.547Z,1.00
2019-05-30T09:24:24.728Z,0.80
2019-05-30T09:25:29.394Z,0.80
2019-05-30T09:26:31.792Z,1.00
2019-05-30T09:27:34.233Z,1.00
2019-05-30T09:28:37.738Z,1.00
2019-05-30T09:29:42.858Z,0.60
2019-05-30T09:30:46.491Z,1.40
2019-05-30T09:31:51.167Z,1.00
2019-05-30T09:32:53.494Z,1.00
2019-05-30T09:33:56.126Z,1.80
2019-05-30T09:34:57.923Z,1.20
2019-05-30T09:36:12.886Z,1.00
2019-05-30T09:37:05.229Z,1.00
2019-05-30T09:38:07.841Z,1.00
2019-05-30T09:39:10.809Z,1.80
2019-05-30T09:40:14.198Z,1.00
2019-05-30T09:41:17.602Z,1.60
2019-05-30T09:42:20.854Z,1.00
2019-05-30T09:43:23.221Z,2.00
2019-05-30T09:44:26.174Z,1.00
2019-05-30T09:45:31.564Z,1.00
2019-05-30T09:46:34.320Z,1.00
2019-05-30T09:47:37.198Z,1.00
2019-05-30T09:48:41.901Z,0.20
2019-05-30T09:49:44.943Z,1.40
2019-05-30T09:50:48.744Z,1.80
2019-05-30T09:51:51.346Z,1.00
2019-05-30T09:52:54.001Z,1.00
2019-05-30T09:53:56.532Z,1.00
2019-05-30T09:55:00.561Z,1.20
2019-05-30T09:56:04.154Z,1.00
2019-05-30T09:57:07.022Z,1.00
2019-05-30T09:58:09.789Z,1.00
2019-05-30T09:59:12.214Z,1.60
2019-05-30T10:00:17.801Z,1.20
2019-05-30T10:01:20.432Z,1.00
2019-05-30T10:02:23.168Z,1.40
2019-05-30T10:03:25.294Z,1.00
2019-05-30T10:04:28.873Z,1.80
2019-05-30T10:05:31.841Z,1.20
2019-05-30T10:06:35.935Z,1.20
2019-05-30T10:07:38.517Z,2.00
2019-05-30T10:08:41.037Z,2.00
2019-05-30T10:09:44.515Z,1.80
2019-05-30T10:10:49.156Z,1.00
2019-05-30T10:11:53.504Z,1.00
2019-05-30T10:12:56.294Z,2.00
2019-05-30T10:14:01.036Z,1.40
2019-05-30T10:15:12.376Z,2.00
2019-05-30T10:16:15.046Z,2.80
2019-05-30T10:17:17.401Z,2.00
2019-05-30T10:18:20.133Z,1.60
2019-05-30T10:19:24.282Z,2.00
2019-05-30T10:20:26.952Z,2.00
2019-05-30T10:21:30.384Z,2.00
2019-05-30T10:22:34.765Z,2.00
2019-05-30T10:23:37.031Z,2.00
2019-05-30T10:24:42.922Z,1.60
2019-05-30T10:25:45.968Z,2.00
2019-05-30T10:26:51.128Z,2.00
2019-05-30T10:27:55.010Z,1.60
2019-05-30T10:28:57.633Z,1.00
2019-05-30T10:30:01.316Z,2.00
2019-05-30T10:31:04.403Z,2.40
2019-05-30T10:32:07.498Z,2.20
2019-05-30T10:33:09.875Z,1.20
2019-05-30T10:34:11.927Z,2.40
2019-05-30T10:35:15.247Z,1.60
2019-05-30T10:36:20.103Z,2.00
2019-05-30T10:37:22.299Z,2.00
2019-05-30T10:38:24.924Z,3.00
2019-05-30T10:39:29.241Z,2.00
2019-05-30T10:40:33.282Z,2.00
2019-05-30T10:41:35.709Z,2.00
2019-05-30T10:42:39.153Z,1.60
2019-05-30T10:43:42.382Z,1.00
2019-05-30T10:44:46.240Z,1.80
2019-05-30T10:45:51.158Z,1.60
2019-05-30T10:46:56.535Z,1.00
2019-05-30T10:47:59.186Z,2.00
2019-05-30T10:49:01.260Z,1.00
2019-05-30T10:50:08.283Z,2.00
2019-05-30T10:51:10.731Z,2.00
2019-05-30T10:52:13.552Z,2.00
2019-05-30T10:53:17.674Z,2.00
2019-05-30T10:54:20.711Z,2.00
2019-05-30T10:55:24.480Z,4.00
2019-05-30T10:56:27.558Z,3.00
2019-05-30T10:57:29.862Z,1.40
2019-05-30T10:58:32.442Z,2.00
2019-05-30T10:59:34.751Z,2.20
2019-05-30T11:00:48.905Z,2.00
2019-05-30T11:01:53.010Z,2.20
2019-05-30T11:02:57.110Z,1.80
2019-05-30T11:03:59.780Z,2.00
2019-05-30T11:05:05.779Z,2.20
2019-05-30T11:06:40.898Z,2.00
2019-05-30T11:08:00.104Z,1.40
2019-05-30T11:08:56.925Z,1.00
2019-05-30T11:10:11.079Z,2.00
2019-05-30T11:11:14.186Z,8.00
2019-05-30T11:12:17.365Z,1.80
2019-05-30T11:13:19.551Z,1.00
2019-05-30T11:14:23.332Z,1.20
2019-05-30T11:15:26.300Z,5.40
2019-05-30T11:16:28.722Z,2.00
2019-05-30T11:17:31.150Z,2.00
2019-05-30T11:18:34.300Z,2.00
2019-05-30T11:19:38.889Z,2.00
2019-05-30T11:20:41.323Z,3.00
2019-05-30T11:21:43.978Z,3.00
2019-05-30T11:22:46.438Z,2.00
2019-05-30T11:23:51.415Z,3.00
2019-05-30T11:24:54.911Z,2.00
2019-05-30T11:25:57.299Z,2.60
2019-05-30T11:26:59.725Z,2.00
2019-05-30T11:28:01.765Z,2.00
2019-05-30T11:29:04.811Z,1.40
2019-05-30T11:30:08.634Z,2.80
2019-05-30T11:31:12.368Z,2.60
2019-05-30T11:32:16.491Z,2.20
2019-05-30T11:33:18.812Z,2.00
2019-05-30T11:34:22.064Z,3.00
2019-05-30T11:35:24.712Z,2.00
2019-05-30T11:36:28.408Z,3.00
2019-05-30T11:37:31.009Z,2.60
2019-05-30T11:38:33.498Z,2.40
2019-05-30T11:39:36.082Z,1.80
2019-05-30T11:40:39.767Z,3.00
2019-05-30T11:41:43.813Z,1.80
2019-05-30T11:42:46.431Z,2.40
2019-05-30T11:43:51.450Z,2.40
2019-05-30T11:44:54.125Z,2.80
2019-05-30T11:45:57.792Z,1.20
2019-05-30T11:47:00.912Z,2.80
2019-05-30T11:48:03.774Z,1.80
2019-05-30T11:49:06.831Z,3.00
2019-05-30T11:50:12.946Z,2.80
2019-05-30T11:51:13.917Z,1.00
2019-05-30T11:52:15.896Z,2.00
2019-05-30T11:53:18.911Z,3.00
2019-05-30T11:54:21.636Z,3.00
2019-05-30T11:55:25.092Z,2.80
2019-05-30T11:56:27.424Z,4.00
2019-05-30T11:57:29.999Z,2.80
2019-05-30T11:58:34.455Z,3.00
2019-05-30T11:59:37.193Z,3.20
2019-05-30T12:00:40.041Z,3.80
2019-05-30T12:01:42.463Z,3.60
2019-05-30T12:02:45.344Z,3.00
2019-05-30T12:03:50.478Z,2.60
2019-05-30T12:04:53.184Z,2.00
2019-05-30T12:05:56.593Z,2.00
2019-05-30T12:06:58.943Z,2.00
2019-05-30T12:08:01.740Z,2.40
2019-05-30T12:09:06.061Z,3.20
2019-05-30T12:10:11.714Z,3.00
2019-05-30T12:11:14.459Z,3.20
2019-05-30T12:12:16.544Z,2.40
2019-05-30T12:13:19.469Z,3.00
2019-05-30T12:14:23.019Z,2.60
2019-05-30T12:15:25.592Z,3.00
2019-05-30T12:16:28.986Z,2.20
2019-05-30T12:17:31.905Z,2.00
2019-05-30T12:18:34.333Z,2.00
2019-05-30T12:19:38.603Z,2.00
2019-05-30T12:20:41.567Z,2.80
2019-05-30T12:21:43.343Z,2.00
2019-05-30T12:22:45.192Z,2.20
2019-05-30T12:23:48.008Z,2.40
2019-05-30T12:24:50.119Z,3.00
2019-05-30T12:25:53.962Z,2.00
2019-05-30T12:26:57.999Z,2.80
2019-05-30T12:28:00.365Z,2.20
2019-05-30T12:29:04.433Z,2.00
2019-05-30T12:30:07.806Z,3.80
2019-05-30T12:31:10.193Z,2.00
2019-05-30T12:32:12.845Z,2.60
2019-05-30T12:33:14.550Z,3.00
2019-05-30T12:34:20.570Z,2.00
2019-05-30T12:35:24.270Z,2.00
2019-05-30T12:36:26.906Z,3.80
2019-05-30T12:37:30.051Z,2.80
2019-05-30T12:38:34.597Z,2.40
2019-05-30T12:39:38.220Z,3.00
2019-05-30T12:40:40.852Z,2.00
2019-05-30T12:41:43.199Z,2.60
2019-05-30T12:42:45.088Z,2.40
2019-05-30T12:43:47.799Z,4.00
2019-05-30T12:44:50.355Z,3.40
2019-05-30T12:45:52.895Z,3.40
2019-05-30T12:46:55.630Z,3.80
2019-05-30T12:47:59.229Z,3.00
2019-05-30T12:49:03.517Z,3.20
2019-05-30T12:50:10.623Z,3.20
2019-05-30T12:51:13.134Z,2.00
2019-05-30T12:52:17.321Z,3.00
2019-05-30T12:53:22.022Z,3.00
2019-05-30T12:54:24.942Z,2.00
2019-05-30T12:55:27.466Z,3.00
2019-05-30T12:56:30.402Z,3.00
2019-05-30T12:57:32.852Z,3.80
2019-05-30T12:58:35.612Z,2.40
2019-05-30T12:59:38.346Z,2.20
2019-05-30T13:00:41.448Z,3.60
2019-05-30T13:01:43.914Z,2.00
2019-05-30T13:02:46.330Z,3.80
2019-05-30T13:03:49.537Z,2.00
2019-05-30T13:04:51.922Z,5.00
2019-05-30T13:05:55.088Z,2.00
2019-05-30T13:06:59.255Z,2.40
2019-05-30T13:08:17.955Z,2.20
2019-05-30T13:09:09.490Z,4.40
2019-05-30T13:10:13.030Z,5.40
2019-05-30T13:11:17.128Z,3.20
2019-05-30T13:12:21.146Z,3.20
2019-05-30T13:13:22.914Z,3.40
2019-05-30T13:14:27.301Z,3.20
2019-05-30T13:15:31.200Z,3.00
2019-05-30T13:16:33.342Z,4.00
2019-05-30T13:17:36.231Z,4.00
2019-05-30T13:18:39.503Z,4.80
2019-05-30T13:19:42.833Z,3.40
2019-05-30T13:20:46.131Z,3.00
2019-05-30T13:21:53.658Z,3.00
2019-05-30T13:22:54.679Z,2.00
2019-05-30T13:23:57.767Z,1.60
2019-05-30T13:24:59.757Z,2.60
2019-05-30T13:26:03.707Z,2.40
2019-05-30T13:27:06.546Z,3.00
2019-05-30T13:28:08.816Z,3.40
2019-05-30T13:29:12.327Z,4.60
2019-05-30T13:30:16.522Z,3.40
2019-05-30T13:31:18.703Z,3.00
2019-05-30T13:32:21.376Z,4.80
2019-05-30T13:33:24.284Z,10.00
2019-05-30T13:34:27.075Z,6.20
2019-05-30T13:35:30.734Z,6.00
2019-05-30T13:36:32.435Z,3.60
2019-05-30T13:37:35.113Z,7.20
2019-05-30T13:38:38.061Z,7.60
2019-05-30T13:39:41.307Z,8.60
2019-05-30T13:40:46.059Z,12.00
2019-05-30T13:41:49.529Z,12.80
2019-05-30T13:42:52.580Z,18.00
2019-05-30T13:43:55.201Z,18.20
2019-05-30T13:44:57.840Z,16.60
2019-05-30T13:46:00.759Z,15.60
2019-05-30T13:47:04.567Z,6.00
2019-05-30T13:48:08.536Z,7.60
2019-05-30T13:49:13.061Z,5.60
2019-05-30T13:50:17.116Z,4.40
2019-05-30T13:51:20.085Z,4.80
2019-05-30T13:52:22.888Z,4.60
2019-05-30T13:53:25.402Z,6.00
2019-05-30T13:54:27.997Z,5.40
2019-05-30T13:55:30.107Z,4.00
2019-05-30T13:56:32.649Z,4.40
2019-05-30T13:57:34.958Z,2.80
2019-05-30T13:58:39.040Z,5.60
2019-05-30T13:59:42.299Z,4.80
2019-05-30T14:00:45.675Z,3.80
2019-05-30T14:01:48.375Z,3.80
2019-05-30T14:02:50.890Z,5.00
2019-05-30T14:03:53.672Z,5.00
2019-05-30T14:04:56.903Z,5.00
2019-05-30T14:06:03.284Z,4.00
2019-05-30T14:07:08.363Z,3.80